Time;durP1;ratioP1;P1;durP2;ratioP2;P2;SDS_P1;SDS_P2;PMS_P1;PMS_P2;Temp;Humidity;BMP_temperature;BMP_pressure;BME280_temperature;BME280_humidity;BME280_pressure;Samples;Min_cycle;Max_cycle;Signal;HPM_P1;HPM_P2
2022/06/03 00:00:20;;;;;;;6.70;6.10;;;;;;;;;;5069398;28;20561;-78
2022/06/03 00:03:17;;;;;;;6.60;6.00;;;;;;;;;;5066875;28;20447;-78
2022/06/03 00:05:51;;;;;;;6.83;6.23;;;;;;;;;;4985959;28;20848;-78
2022/06/03 00:08:37;;;;;;;6.87;6.10;;;;;;;;;;5049408;28;20940;-78
2022/06/03 00:11:21;;;;;;;6.63;6.07;;;;;;;;;;5068106;28;20480;-78
2022/06/03 00:13:57;;;;;;;7.20;6.60;;;;;;;;;;5080367;28;20561;-78
2022/06/03 00:16:28;;;;;;;6.50;5.90;;;;;;;;;;5085384;28;20448;-78
2022/06/03 00:18:59;;;;;;;6.70;6.23;;;;;;;;;;5063309;28;20442;-78
2022/06/03 00:21:39;;;;;;;6.40;5.90;;;;;;;;;;5070030;28;20477;-78
2022/06/03 00:24:10;;;;;;;7.03;6.27;;;;;;;;;;5070248;28;20787;-78
2022/06/03 00:26:59;;;;;;;6.40;5.83;;;;;;;;;;5069114;28;21023;-78
2022/06/03 00:29:35;;;;;;;7.27;6.57;;;;;;;;;;5086585;28;20553;-78
2022/06/03 00:32:20;;;;;;;6.70;6.10;;;;;;;;;;5091410;28;20414;-78
2022/06/03 00:34:57;;;;;;;7.03;5.60;;;;;;;;;;5062936;28;20843;-78
2022/06/03 00:37:31;;;;;;;6.20;5.60;;;;;;;;;;5058601;28;20545;-78
2022/06/03 00:40:04;;;;;;;6.37;5.87;;;;;;;;;;5071216;28;20430;-78
2022/06/03 00:42:38;;;;;;;5.80;5.30;;;;;;;;;;5079999;28;20430;-78
2022/06/03 00:45:17;;;;;;;6.40;5.73;;;;;;;;;;5069775;28;20537;-78
2022/06/03 00:47:51;;;;;;;8.23;6.10;;;;;;;;;;5051009;28;20407;-78
2022/06/03 00:50:42;;;;;;;6.40;5.90;;;;;;;;;;5051758;28;20572;-78
2022/06/03 00:53:26;;;;;;;6.83;6.23;;;;;;;;;;5055913;28;20488;-78
2022/06/03 00:56:11;;;;;;;6.53;5.90;;;;;;;;;;5067104;28;20462;-78
2022/06/03 00:58:46;;;;;;;6.70;6.00;;;;;;;;;;5071195;28;20875;-78
2022/06/03 01:01:19;;;;;;;6.40;5.80;;;;;;;;;;5063974;28;20533;-78
2022/06/03 01:03:55;;;;;;;6.70;6.10;;;;;;;;;;5050799;28;20411;-78
2022/06/03 01:06:29;;;;;;;6.57;6.07;;;;;;;;;;5068017;28;20453;-78
2022/06/03 01:09:03;;;;;;;6.70;6.00;;;;;;;;;;5057660;28;20501;-78
2022/06/03 01:11:44;;;;;;;6.93;6.30;;;;;;;;;;5057965;28;20449;-79
2022/06/03 01:14:18;;;;;;;5.97;5.47;;;;;;;;;;5052722;28;20939;-78
2022/06/03 01:16:51;;;;;;;5.73;5.33;;;;;;;;;;5071281;28;20437;-78
2022/06/03 01:19:28;;;;;;;6.70;6.13;;;;;;;;;;5064246;28;20956;-78
2022/06/03 01:22:01;;;;;;;6.67;6.07;;;;;;;;;;5069139;28;20941;-78
2022/06/03 01:24:46;;;;;;;6.93;6.33;;;;;;;;;;5069383;28;20513;-78
2022/06/03 01:27:33;;;;;;;6.53;5.93;;;;;;;;;;5069410;28;20422;-78
2022/06/03 01:30:07;;;;;;;6.27;5.67;;;;;;;;;;5066142;28;21150;-78
2022/06/03 01:32:42;;;;;;;6.20;5.70;;;;;;;;;;5066773;28;20457;-78
2022/06/03 01:35:23;;;;;;;6.50;6.00;;;;;;;;;;5069339;28;20454;-78
2022/06/03 01:37:53;;;;;;;6.20;5.70;;;;;;;;;;5048198;28;20888;-78
2022/06/03 01:40:35;;;;;;;7.20;6.60;;;;;;;;;;5057266;28;20457;-78
2022/06/03 01:43:19;;;;;;;6.20;5.70;;;;;;;;;;5064663;28;20998;-78
2022/06/03 01:46:04;;;;;;;7.20;6.60;;;;;;;;;;5068395;28;20535;-78
2022/06/03 01:48:50;;;;;;;7.37;6.67;;;;;;;;;;5068897;28;20481;-78
2022/06/03 01:51:31;;;;;;;7.40;6.57;;;;;;;;;;5068936;28;20446;-78
2022/06/03 01:54:20;;;;;;;6.80;6.30;;;;;;;;;;5065986;28;20545;-78
2022/06/03 01:56:59;;;;;;;5.70;5.20;;;;;;;;;;5052439;28;20489;-78
2022/06/03 01:59:51;;;;;;;6.10;5.50;;;;;;;;;;5056590;28;20443;-78
2022/06/03 02:02:43;;;;;;;5.87;5.27;;;;;;;;;;5053605;28;20422;-78
2022/06/03 02:05:32;;;;;;;6.67;6.07;;;;;;;;;;5053572;28;20470;-78
2022/06/03 02:08:17;;;;;;;6.33;5.70;;;;;;;;;;5052288;28;20434;-77
2022/06/03 02:11:01;;;;;;;6.77;6.20;;;;;;;;;;5070251;28;20473;-77
2022/06/03 02:13:43;;;;;;;7.23;6.53;;;;;;;;;;5068608;28;20443;-77
2022/06/03 02:16:21;;;;;;;6.37;5.87;;;;;;;;;;5065612;28;20447;-77
2022/06/03 02:19:00;;;;;;;5.80;5.30;;;;;;;;;;5066428;28;20507;-77
2022/06/03 02:21:47;;;;;;;6.40;5.80;;;;;;;;;;5060447;28;20836;-77
2022/06/03 02:24:43;;;;;;;7.43;6.13;;;;;;;;;;5048070;28;20487;-77
2022/06/03 02:27:24;;;;;;;7.73;6.00;;;;;;;;;;5010658;28;20420;-77
2022/06/03 02:33:06;;;;;;;5.70;5.20;;;;;;;;;;5072324;28;20438;-77
2022/06/03 02:35:41;;;;;;;6.10;5.60;;;;;;;;;;5053340;28;20505;-77
2022/06/03 02:38:16;;;;;;;10.00;6.83;;;;;;;;;;5068070;28;20684;-77
2022/06/03 02:40:51;;;;;;;6.57;6.07;;;;;;;;;;5081932;28;20843;-77
2022/06/03 02:43:37;;;;;;;6.40;5.80;;;;;;;;;;5072771;28;20429;-77
2022/06/03 02:46:22;;;;;;;6.37;5.77;;;;;;;;;;5066670;28;21153;-77
2022/06/03 02:49:09;;;;;;;6.23;5.63;;;;;;;;;;5068928;28;20514;-77
2022/06/03 02:52:05;;;;;;;7.10;6.43;;;;;;;;;;5044370;28;20477;-77
2022/06/03 02:55:01;;;;;;;5.80;5.30;;;;;;;;;;5053228;28;20514;-77
2022/06/03 02:57:35;;;;;;;6.63;5.97;;;;;;;;;;5068855;28;20561;-77
2022/06/03 03:00:23;;;;;;;6.50;5.90;;;;;;;;;;5070908;28;20473;-77
2022/06/03 03:03:08;;;;;;;6.17;5.67;;;;;;;;;;5068335;28;20429;-77
2022/06/03 03:05:44;;;;;;;8.07;7.27;;;;;;;;;;5052102;28;20489;-77
2022/06/03 03:08:29;;;;;;;6.70;6.10;;;;;;;;;;5068147;28;20477;-77
2022/06/03 03:11:07;;;;;;;7.40;6.73;;;;;;;;;;5073253;28;20465;-77
2022/06/03 03:13:50;;;;;;;6.53;5.93;;;;;;;;;;5065299;28;20929;-77
2022/06/03 03:16:26;;;;;;;6.37;5.77;;;;;;;;;;5081878;28;20450;-77
2022/06/03 03:19:07;;;;;;;6.53;5.93;;;;;;;;;;5071989;28;20433;-77
2022/06/03 03:21:46;;;;;;;7.87;7.17;;;;;;;;;;5068659;28;20839;-77
2022/06/03 03:24:27;;;;;;;6.63;5.93;;;;;;;;;;5071486;28;20434;-77
2022/06/03 03:27:02;;;;;;;11.27;8.30;;;;;;;;;;5085510;28;20850;-77
2022/06/03 03:29:41;;;;;;;7.33;6.57;;;;;;;;;;5072685;28;20568;-77
2022/06/03 03:32:34;;;;;;;6.07;5.57;;;;;;;;;;5067789;28;20794;-77
2022/06/03 03:35:31;;;;;;;6.57;5.80;;;;;;;;;;5069719;28;20856;-77
2022/06/03 03:38:25;;;;;;;6.67;6.07;;;;;;;;;;4992574;28;20793;-77
2022/06/03 03:41:06;;;;;;;6.77;6.17;;;;;;;;;;5069805;28;20454;-77
2022/06/03 03:43:47;;;;;;;6.47;5.97;;;;;;;;;;5081679;28;20513;-77
2022/06/03 03:46:47;;;;;;;7.00;6.40;;;;;;;;;;5069005;28;20492;-77
2022/06/03 03:49:44;;;;;;;6.73;6.13;;;;;;;;;;5070213;28;20516;-77
2022/06/03 03:52:25;;;;;;;7.30;6.60;;;;;;;;;;4992856;28;20527;-77
2022/06/03 03:55:10;;;;;;;7.13;6.53;;;;;;;;;;5060302;28;20521;-77
2022/06/03 03:57:51;;;;;;;9.27;6.20;;;;;;;;;;5083939;28;20480;-79
2022/06/03 04:00:35;;;;;;;7.40;6.70;;;;;;;;;;5070180;28;20445;-77
2022/06/03 04:03:16;;;;;;;7.10;6.40;;;;;;;;;;5071409;28;20786;-77
2022/06/03 04:05:54;;;;;;;6.40;5.90;;;;;;;;;;5069444;28;20801;-76
2022/06/03 04:08:31;;;;;;;7.07;6.47;;;;;;;;;;5073044;28;20469;-79
2022/06/03 04:11:15;;;;;;;7.70;6.90;;;;;;;;;;5070323;28;20470;-77
2022/06/03 04:14:03;;;;;;;8.10;7.40;;;;;;;;;;5073530;28;20859;-77
2022/06/03 04:16:46;;;;;;;7.57;6.97;;;;;;;;;;5027703;28;20552;-76
2022/06/03 04:19:32;;;;;;;8.43;7.63;;;;;;;;;;5051117;28;20777;-77
2022/06/03 04:22:16;;;;;;;8.10;7.30;;;;;;;;;;5066716;28;20485;-79
2022/06/03 04:25:11;;;;;;;8.97;8.20;;;;;;;;;;5070048;28;20442;-79
2022/06/03 04:27:55;;;;;;;8.20;7.50;;;;;;;;;;5070467;28;20607;-78
2022/06/03 04:30:42;;;;;;;8.63;7.90;;;;;;;;;;5081472;28;20591;-78
2022/06/03 04:33:27;;;;;;;9.00;8.13;;;;;;;;;;5071006;28;20469;-78
2022/06/03 04:36:16;;;;;;;9.23;8.37;;;;;;;;;;5064885;28;20454;-78
2022/06/03 04:38:59;;;;;;;9.20;8.30;;;;;;;;;;5057791;28;20426;-78
2022/06/03 04:41:52;;;;;;;9.33;8.43;;;;;;;;;;5056326;28;20935;-78
2022/06/03 04:44:37;;;;;;;9.97;9.17;;;;;;;;;;5011656;28;20485;-78
2022/06/03 04:47:22;;;;;;;8.97;8.20;;;;;;;;;;5048899;28;20459;-78
2022/06/03 04:50:07;;;;;;;9.57;8.30;;;;;;;;;;5051708;28;20498;-78
2022/06/03 04:52:52;;;;;;;9.43;8.53;;;;;;;;;;5101657;28;20458;-78
2022/06/03 04:55:49;;;;;;;9.60;8.80;;;;;;;;;;5068398;28;20477;-78
2022/06/03 04:58:43;;;;;;;9.27;8.47;;;;;;;;;;5004776;28;20686;-78
2022/06/03 05:01:21;;;;;;;9.03;8.23;;;;;;;;;;5046175;28;20461;-78
2022/06/03 05:04:06;;;;;;;10.20;9.00;;;;;;;;;;5064229;28;20474;-79
2022/06/03 05:07:04;;;;;;;9.70;8.90;;;;;;;;;;5052392;28;20455;-79
2022/06/03 05:09:46;;;;;;;9.00;8.10;;;;;;;;;;5061256;28;20441;-79
2022/06/03 05:12:33;;;;;;;9.57;8.67;;;;;;;;;;5026150;28;20834;-79
2022/06/03 05:15:27;;;;;;;8.17;7.57;;;;;;;;;;5066822;28;20453;-79
2022/06/03 05:18:10;;;;;;;9.40;8.60;;;;;;;;;;5069122;28;20474;-79
2022/06/03 05:21:07;;;;;;;9.47;8.50;;;;;;;;;;5063138;28;20460;-80
2022/06/03 05:23:48;;;;;;;9.23;8.03;;;;;;;;;;4980931;28;20490;-79
2022/06/03 05:26:37;;;;;;;9.20;8.40;;;;;;;;;;5029277;28;20450;-79
2022/06/03 05:29:19;;;;;;;8.73;7.93;;;;;;;;;;5056040;28;20536;-78
2022/06/03 05:32:06;;;;;;;8.97;8.17;;;;;;;;;;5057467;28;20477;-78
2022/06/03 05:34:51;;;;;;;8.70;7.83;;;;;;;;;;5072477;28;20737;-78
2022/06/03 05:37:39;;;;;;;8.60;7.80;;;;;;;;;;5070580;28;21096;-78
2022/06/03 05:40:17;;;;;;;8.20;7.40;;;;;;;;;;5064770;28;20921;-79
2022/06/03 05:43:02;;;;;;;9.43;8.63;;;;;;;;;;5090496;28;20912;-78
2022/06/03 05:45:42;;;;;;;9.00;8.20;;;;;;;;;;5081292;28;20580;-79
2022/06/03 05:48:11;;;;;;;9.37;8.63;;;;;;;;;;5100189;28;20932;-78
2022/06/03 05:50:42;;;;;;;9.20;8.50;;;;;;;;;;5083826;28;20573;-78
2022/06/03 05:53:18;;;;;;;11.57;9.43;;;;;;;;;;5056033;28;20431;-78
2022/06/03 05:55:51;;;;;;;8.73;7.90;;;;;;;;;;5064060;28;20561;-78
2022/06/03 05:58:21;;;;;;;9.83;8.93;;;;;;;;;;5056602;28;20450;-78
2022/06/03 06:00:53;;;;;;;10.60;8.10;;;;;;;;;;5070329;28;20477;-78
2022/06/03 06:03:29;;;;;;;8.97;8.27;;;;;;;;;;5065085;28;20430;-78
2022/06/03 06:06:04;;;;;;;9.50;8.60;;;;;;;;;;5058333;28;20446;-80
2022/06/03 06:08:35;;;;;;;8.77;8.07;;;;;;;;;;5063605;28;20968;-81
2022/06/03 06:11:05;;;;;;;10.13;9.03;;;;;;;;;;5085789;28;20791;-81
2022/06/03 06:13:42;;;;;;;7.60;6.90;;;;;;;;;;5082056;28;20451;-79
2022/06/03 06:16:11;;;;;;;9.50;8.00;;;;;;;;;;5084335;28;20573;-79
2022/06/03 06:18:46;;;;;;;8.47;7.70;;;;;;;;;;5070594;28;20449;-79
2022/06/03 06:21:25;;;;;;;8.40;7.70;;;;;;;;;;5069117;28;20838;-79
2022/06/03 06:27:27;;;;;;;9.33;8.53;;;;;;;;;;5067551;28;20819;-80
2022/06/03 06:30:22;;;;;;;8.97;8.17;;;;;;;;;;5084120;28;20442;-79
2022/06/03 06:33:06;;;;;;;9.70;8.90;;;;;;;;;;5071028;28;20468;-81
2022/06/03 06:35:51;;;;;;;8.53;7.80;;;;;;;;;;5051009;28;20449;-80
2022/06/03 06:38:21;;;;;;;10.10;9.30;;;;;;;;;;5069353;28;20867;-79
2022/06/03 06:40:55;;;;;;;8.20;7.50;;;;;;;;;;5067616;28;20482;-80
2022/06/03 06:43:31;;;;;;;10.50;7.13;;;;;;;;;;5064725;28;20503;-79
2022/06/03 06:46:00;;;;;;;8.30;7.47;;;;;;;;;;5055889;28;20874;-81
2022/06/03 06:48:34;;;;;;;8.70;8.00;;;;;;;;;;5065838;28;20533;-81
2022/06/03 06:51:03;;;;;;;11.13;8.40;;;;;;;;;;5072181;28;20468;-81
2022/06/03 06:53:34;;;;;;;8.40;7.70;;;;;;;;;;5066327;28;20537;-81
2022/06/03 06:56:06;;;;;;;8.93;8.03;;;;;;;;;;5071120;28;20422;-81
2022/06/03 06:58:42;;;;;;;8.60;7.80;;;;;;;;;;5077620;28;20484;-81
2022/06/03 07:01:09;;;;;;;8.57;7.80;;;;;;;;;;5061137;28;20537;-81
2022/06/03 07:03:50;;;;;;;8.73;7.93;;;;;;;;;;5069403;28;20545;-80
2022/06/03 07:06:21;;;;;;;8.60;7.80;;;;;;;;;;5068604;28;20509;-81
2022/06/03 07:08:52;;;;;;;7.40;6.80;;;;;;;;;;5073927;28;20828;-82
2022/06/03 07:11:23;;;;;;;8.57;7.87;;;;;;;;;;5068612;28;20494;-81
2022/06/03 07:13:55;;;;;;;8.40;7.80;;;;;;;;;;5063524;28;20451;-81
2022/06/03 07:22:00;;;;;;;9.37;7.60;;;;;;;;;;5073545;28;20455;-82
2022/06/03 07:24:36;;;;;;;8.73;7.87;;;;;;;;;;5053277;28;20497;-82
2022/06/03 07:27:07;;;;;;;8.13;7.43;;;;;;;;;;5063158;28;20917;-81
2022/06/03 07:29:38;;;;;;;8.00;7.30;;;;;;;;;;5051940;28;20430;-81
2022/06/03 07:32:09;;;;;;;7.20;6.70;;;;;;;;;;5064587;28;20476;-81
2022/06/03 07:34:40;;;;;;;7.43;6.80;;;;;;;;;;5071627;28;20481;-81
2022/06/03 07:37:09;;;;;;;6.80;6.30;;;;;;;;;;5077236;28;20454;-81
2022/06/03 07:39:44;;;;;;;6.90;6.30;;;;;;;;;;5062862;28;20863;-81
2022/06/03 07:42:13;;;;;;;6.90;6.40;;;;;;;;;;5068733;28;20550;-82
2022/06/03 07:44:45;;;;;;;7.73;6.43;;;;;;;;;;5087395;28;20441;-81
2022/06/03 07:47:13;;;;;;;6.50;6.00;;;;;;;;;;5083959;28;20477;-81
2022/06/03 07:49:43;;;;;;;6.40;5.80;;;;;;;;;;5073446;28;20431;-82
2022/06/03 07:52:15;;;;;;;6.67;6.17;;;;;;;;;;5065414;28;20470;-82
2022/06/03 07:54:51;;;;;;;7.20;6.60;;;;;;;;;;5052056;28;20423;-82
2022/06/03 07:57:19;;;;;;;6.37;5.73;;;;;;;;;;5070029;28;20548;-82
2022/06/03 07:59:46;;;;;;;7.87;7.17;;;;;;;;;;5081924;28;20546;-81
2022/06/03 08:02:15;;;;;;;5.93;5.53;;;;;;;;;;5050943;28;20533;-82
2022/06/03 08:04:44;;;;;;;6.70;6.20;;;;;;;;;;5063535;28;20438;-82
2022/06/03 08:12:55;;;;;;;7.07;6.40;;;;;;;;;;5068043;28;20453;-82
2022/06/03 08:15:24;;;;;;;7.23;6.70;;;;;;;;;;5072611;28;20911;-81
2022/06/03 08:17:54;;;;;;;7.37;6.83;;;;;;;;;;5086751;28;20998;-81
2022/06/03 08:20:24;;;;;;;6.63;6.13;;;;;;;;;;5070430;28;20450;-83
2022/06/03 08:22:51;;;;;;;7.27;6.57;;;;;;;;;;5065768;28;20446;-82
2022/06/03 08:25:25;;;;;;;6.17;5.70;;;;;;;;;;5068333;28;20487;-83
2022/06/03 08:27:55;;;;;;;6.50;5.90;;;;;;;;;;5063910;28;20480;-83
2022/06/03 08:30:25;;;;;;;6.10;5.50;;;;;;;;;;5095802;28;20979;-82
2022/06/03 08:32:53;;;;;;;6.23;5.73;;;;;;;;;;5068141;28;20938;-82
2022/06/03 08:35:23;;;;;;;6.00;5.60;;;;;;;;;;5103482;28;20798;-82
2022/06/03 08:37:53;;;;;;;6.30;5.80;;;;;;;;;;5068271;28;20454;-84
2022/06/03 08:40:24;;;;;;;5.77;5.27;;;;;;;;;;5066616;28;20459;-82
2022/06/03 08:42:55;;;;;;;6.57;6.07;;;;;;;;;;5055384;28;20453;-80
2022/06/03 08:45:28;;;;;;;6.43;6.03;;;;;;;;;;5056627;28;20494;-81
2022/06/03 08:47:55;;;;;;;6.03;5.63;;;;;;;;;;5054498;28;20855;-80
2022/06/03 08:50:28;;;;;;;6.50;5.90;;;;;;;;;;5069562;28;20904;-81
2022/06/03 08:53:00;;;;;;;6.63;6.13;;;;;;;;;;5069634;28;20588;-80
2022/06/03 08:55:34;;;;;;;6.90;6.30;;;;;;;;;;5064258;28;20447;-80
2022/06/03 08:58:06;;;;;;;7.00;6.30;;;;;;;;;;5080984;28;20462;-81
2022/06/03 09:00:37;;;;;;;7.47;6.90;;;;;;;;;;5069827;28;20441;-81
2022/06/03 09:03:08;;;;;;;7.60;6.77;;;;;;;;;;5088363;28;20451;-80
2022/06/03 09:05:37;;;;;;;7.47;6.97;;;;;;;;;;5055398;28;20431;-81
2022/06/03 09:08:11;;;;;;;7.17;6.67;;;;;;;;;;5056346;28;20809;-80
2022/06/03 09:10:41;;;;;;;6.90;6.40;;;;;;;;;;5073763;28;20425;-80
2022/06/03 09:13:12;;;;;;;6.67;6.17;;;;;;;;;;5062762;28;20511;-80
2022/06/03 09:15:40;;;;;;;6.13;5.73;;;;;;;;;;5071913;28;20850;-81
2022/06/03 09:18:10;;;;;;;6.57;6.07;;;;;;;;;;5067054;28;20465;-80
2022/06/03 09:20:40;;;;;;;6.30;5.80;;;;;;;;;;5073811;28;20442;-80
2022/06/03 09:23:09;;;;;;;6.40;5.90;;;;;;;;;;5073774;28;20465;-80
2022/06/03 09:25:38;;;;;;;6.70;6.10;;;;;;;;;;5072125;28;20813;-77
2022/06/03 09:28:06;;;;;;;6.63;5.93;;;;;;;;;;5086744;28;20502;-75
2022/06/03 09:30:39;;;;;;;6.70;6.20;;;;;;;;;;5070360;28;20422;-76
2022/06/03 09:33:08;;;;;;;5.73;5.30;;;;;;;;;;5072480;28;20532;-77
2022/06/03 09:35:37;;;;;;;6.03;5.60;;;;;;;;;;5088148;28;20824;-77
2022/06/03 09:38:06;;;;;;;7.13;6.53;;;;;;;;;;5067842;28;20487;-75
2022/06/03 09:40:36;;;;;;;7.43;6.50;;;;;;;;;;5073134;28;20504;-77
2022/06/03 09:43:04;;;;;;;7.13;6.43;;;;;;;;;;5071874;28;20466;-79
2022/06/03 09:45:31;;;;;;;7.00;6.30;;;;;;;;;;5069920;28;20564;-81
2022/06/03 09:48:00;;;;;;;7.10;6.60;;;;;;;;;;5071178;28;20530;-80
2022/06/03 09:50:27;;;;;;;8.03;7.33;;;;;;;;;;5074612;28;20944;-80
2022/06/03 09:53:01;;;;;;;7.20;6.50;;;;;;;;;;5073226;28;20481;-80
2022/06/03 09:55:29;;;;;;;6.90;6.20;;;;;;;;;;5068541;28;20492;-79
2022/06/03 09:57:58;;;;;;;6.27;5.87;;;;;;;;;;5072838;28;20460;-80
2022/06/03 10:00:26;;;;;;;6.47;5.97;;;;;;;;;;5068398;28;20897;-80
2022/06/03 10:02:53;;;;;;;6.80;6.27;;;;;;;;;;5072762;28;20570;-80
2022/06/03 10:05:21;;;;;;;7.67;7.07;;;;;;;;;;5070509;28;20944;-80
2022/06/03 10:07:48;;;;;;;6.03;5.53;;;;;;;;;;5073584;28;20469;-80
2022/06/03 10:13:02;;;;;;;6.10;5.70;;;;;;;;;;5059317;28;20807;-80
2022/06/03 10:15:39;;;;;;;6.20;5.80;;;;;;;;;;5067260;28;20484;-79
2022/06/03 10:18:09;;;;;;;6.40;5.90;;;;;;;;;;5067871;28;20557;-79
2022/06/03 10:20:36;;;;;;;6.93;6.43;;;;;;;;;;5065585;28;20980;-79
2022/06/03 10:23:03;;;;;;;6.20;5.80;;;;;;;;;;5070963;28;20879;-79
2022/06/03 10:25:30;;;;;;;6.30;5.80;;;;;;;;;;5072425;28;20438;-79
2022/06/03 10:28:02;;;;;;;6.40;5.90;;;;;;;;;;5104067;28;20453;-79
2022/06/03 10:30:31;;;;;;;6.33;5.93;;;;;;;;;;5077777;28;20456;-79
2022/06/03 10:32:58;;;;;;;6.90;6.40;;;;;;;;;;5057930;28;20489;-79
2022/06/03 10:35:28;;;;;;;6.80;6.20;;;;;;;;;;5071813;28;20496;-78
2022/06/03 10:38:06;;;;;;;5.77;5.37;;;;;;;;;;5087079;28;20457;-79
2022/06/03 10:40:33;;;;;;;5.90;5.50;;;;;;;;;;5070698;28;20683;-78
2022/06/03 10:43:01;;;;;;;5.70;5.30;;;;;;;;;;5082802;28;20449;-79
2022/06/03 10:45:28;;;;;;;5.50;5.00;;;;;;;;;;5104416;28;20461;-79
2022/06/03 10:47:56;;;;;;;5.60;5.20;;;;;;;;;;5060021;28;20553;-76
2022/06/03 10:50:27;;;;;;;5.70;5.30;;;;;;;;;;5066297;28;21013;-76
2022/06/03 11:01:26;;;;;;;7.33;6.60;;;;;;;;;;5067515;28;20437;-75
2022/06/03 11:03:55;;;;;;;6.47;5.97;;;;;;;;;;5070180;28;20438;-76
2022/06/03 11:06:23;;;;;;;6.00;5.50;;;;;;;;;;5067785;28;20441;-75
2022/06/03 11:08:51;;;;;;;5.43;4.93;;;;;;;;;;5072501;28;20444;-76
2022/06/03 11:11:31;;;;;;;6.60;5.53;;;;;;;;;;5068339;28;20441;-76
2022/06/03 11:13:58;;;;;;;5.93;5.43;;;;;;;;;;5068163;28;20455;-76
2022/06/03 11:16:26;;;;;;;5.27;4.83;;;;;;;;;;5059878;28;20499;-76
2022/06/03 11:18:54;;;;;;;5.27;4.77;;;;;;;;;;5074248;28;20446;-78
2022/06/03 11:21:24;;;;;;;5.53;5.03;;;;;;;;;;5059786;28;20447;-79
2022/06/03 11:23:50;;;;;;;4.93;4.53;;;;;;;;;;5046455;28;20481;-80
2022/06/03 11:26:17;;;;;;;5.30;4.83;;;;;;;;;;5069619;28;20493;-80
2022/06/03 11:28:47;;;;;;;5.10;4.60;;;;;;;;;;5070993;28;20566;-80
2022/06/03 11:31:17;;;;;;;4.47;4.17;;;;;;;;;;5051144;28;20462;-80
2022/06/03 11:33:47;;;;;;;5.03;4.63;;;;;;;;;;5059576;28;20478;-80
2022/06/03 11:36:18;;;;;;;5.93;4.73;;;;;;;;;;5064621;28;20455;-80
2022/06/03 11:38:48;;;;;;;5.77;4.90;;;;;;;;;;5066973;28;20449;-80
2022/06/03 11:41:18;;;;;;;6.87;5.20;;;;;;;;;;5069424;28;20805;-80
2022/06/03 11:43:48;;;;;;;5.70;5.20;;;;;;;;;;5079667;28;20458;-80
2022/06/03 11:46:16;;;;;;;5.10;4.80;;;;;;;;;;5058980;28;20466;-80
2022/06/03 11:48:44;;;;;;;5.37;4.97;;;;;;;;;;5081769;28;20454;-80
2022/06/03 11:51:12;;;;;;;6.30;5.47;;;;;;;;;;5071423;28;20470;-80
2022/06/03 11:53:41;;;;;;;6.93;6.40;;;;;;;;;;5065655;28;20466;-80
2022/06/03 11:56:09;;;;;;;7.53;6.83;;;;;;;;;;5068281;28;20457;-79
2022/06/03 11:58:51;;;;;;;6.63;6.03;;;;;;;;;;5063357;28;20446;-78
2022/06/03 12:01:19;;;;;;;6.97;6.37;;;;;;;;;;5049175;28;20512;-78
2022/06/03 12:03:51;;;;;;;6.27;5.87;;;;;;;;;;5069295;28;20446;-80
2022/06/03 12:06:22;;;;;;;6.20;5.70;;;;;;;;;;5092465;28;20548;-77
2022/06/03 12:08:53;;;;;;;5.97;5.47;;;;;;;;;;5067082;28;20480;-77
2022/06/03 12:14:19;;;;;;;6.90;6.20;;;;;;;;;;5066694;28;20746;-74
2022/06/03 12:16:53;;;;;;;8.40;6.10;;;;;;;;;;5074397;28;20435;-76
2022/06/03 12:19:35;;;;;;;6.90;6.40;;;;;;;;;;5057630;28;20426;-74
2022/06/03 12:22:16;;;;;;;7.03;6.40;;;;;;;;;;5066371;28;20438;-74
2022/06/03 12:24:52;;;;;;;7.40;6.80;;;;;;;;;;5068498;28;20430;-74
2022/06/03 12:27:24;;;;;;;7.47;6.77;;;;;;;;;;5088151;28;20442;-74
2022/06/03 12:29:58;;;;;;;7.60;7.00;;;;;;;;;;5055407;28;20484;-75
2022/06/03 12:32:27;;;;;;;7.50;6.80;;;;;;;;;;5071691;28;20481;-75
2022/06/03 12:35:16;;;;;;;7.20;6.60;;;;;;;;;;5067623;28;20449;-75
2022/06/03 12:37:42;;;;;;;7.33;6.73;;;;;;;;;;5051928;28;20558;-75
2022/06/03 12:40:25;;;;;;;10.40;7.47;;;;;;;;;;5066715;28;20845;-74
2022/06/03 12:42:51;;;;;;;7.60;6.93;;;;;;;;;;5066835;28;20728;-75
2022/06/03 12:45:27;;;;;;;7.70;6.93;;;;;;;;;;5063777;28;20465;-75
2022/06/03 12:47:55;;;;;;;6.43;5.93;;;;;;;;;;5068145;28;20531;-75
2022/06/03 12:50:28;;;;;;;7.30;6.60;;;;;;;;;;5084176;28;20446;-75
2022/06/03 12:52:57;;;;;;;7.50;6.90;;;;;;;;;;5084772;28;20470;-75
2022/06/03 12:55:27;;;;;;;10.20;6.47;;;;;;;;;;5059417;28;20503;-75
2022/06/03 12:57:56;;;;;;;7.50;6.33;;;;;;;;;;5053843;28;20464;-75
2022/06/03 13:00:27;;;;;;;7.43;6.73;;;;;;;;;;5051141;28;20450;-75
2022/06/03 13:02:55;;;;;;;7.20;6.70;;;;;;;;;;5053461;28;20535;-77
2022/06/03 13:05:27;;;;;;;7.43;6.83;;;;;;;;;;5065237;28;20430;-77
2022/06/03 13:07:58;;;;;;;7.57;6.87;;;;;;;;;;5073252;28;20449;-74
2022/06/03 13:10:54;;;;;;;8.40;7.60;;;;;;;;;;5065443;28;20429;-74
2022/06/03 13:13:36;;;;;;;7.07;6.50;;;;;;;;;;5070502;28;20466;-75
2022/06/03 13:16:20;;;;;;;8.40;7.70;;;;;;;;;;5049965;28;20446;-75
2022/06/03 13:18:49;;;;;;;8.03;7.33;;;;;;;;;;5057927;28;20532;-75
2022/06/03 13:21:26;;;;;;;7.37;6.67;;;;;;;;;;5056030;28;20430;-75
2022/06/03 13:23:54;;;;;;;7.53;6.93;;;;;;;;;;5082929;28;20448;-75
2022/06/03 13:26:39;;;;;;;7.57;6.87;;;;;;;;;;5057788;28;20489;-75
2022/06/03 13:29:08;;;;;;;7.90;7.30;;;;;;;;;;5049413;28;20458;-74
2022/06/03 13:31:54;;;;;;;7.23;6.63;;;;;;;;;;5065008;28;20461;-74
2022/06/03 13:34:40;;;;;;;8.23;7.53;;;;;;;;;;5077560;28;20472;-74
2022/06/03 13:37:31;;;;;;;7.33;6.47;;;;;;;;;;5062029;28;20476;-74
2022/06/03 13:40:02;;;;;;;6.80;6.30;;;;;;;;;;5046911;28;20561;-75
2022/06/03 13:43:01;;;;;;;7.77;7.10;;;;;;;;;;5067476;28;20941;-74
2022/06/03 13:45:30;;;;;;;8.50;7.80;;;;;;;;;;5054431;28;20489;-76
2022/06/03 13:47:58;;;;;;;8.07;7.37;;;;;;;;;;5050249;28;20478;-75
2022/06/03 13:50:35;;;;;;;8.47;7.33;;;;;;;;;;5053298;28;20443;-75
2022/06/03 13:53:02;;;;;;;7.77;7.07;;;;;;;;;;5075035;28;20461;-75
2022/06/03 13:55:31;;;;;;;8.17;7.40;;;;;;;;;;5058050;28;20957;-75
2022/06/03 13:58:00;;;;;;;8.40;7.70;;;;;;;;;;5057611;28;20471;-75
2022/06/03 14:00:28;;;;;;;8.80;8.03;;;;;;;;;;5088009;28;20899;-75
2022/06/03 14:02:57;;;;;;;8.47;7.70;;;;;;;;;;5055654;28;20442;-75
2022/06/03 14:05:30;;;;;;;9.03;8.23;;;;;;;;;;5062764;28;20460;-75
2022/06/03 14:07:59;;;;;;;9.13;8.33;;;;;;;;;;5084063;28;20495;-75
2022/06/03 14:10:26;;;;;;;9.13;8.43;;;;;;;;;;5078344;28;20481;-75
2022/06/03 14:12:55;;;;;;;9.60;8.80;;;;;;;;;;5056691;28;20785;-75
2022/06/03 14:15:24;;;;;;;10.80;8.87;;;;;;;;;;5060297;28;20569;-75
2022/06/03 14:17:53;;;;;;;9.63;8.70;;;;;;;;;;5088111;28;20951;-75
2022/06/03 14:20:23;;;;;;;9.30;8.40;;;;;;;;;;5068572;28;20548;-75
2022/06/03 14:22:53;;;;;;;9.50;8.50;;;;;;;;;;5051673;28;20798;-75
2022/06/03 14:25:22;;;;;;;8.97;7.70;;;;;;;;;;5053638;28;20855;-75
2022/06/03 14:27:59;;;;;;;9.27;8.43;;;;;;;;;;5068645;28;20494;-75
2022/06/03 14:30:30;;;;;;;8.57;7.90;;;;;;;;;;5071462;28;20431;-75
2022/06/03 14:32:58;;;;;;;8.70;7.90;;;;;;;;;;5087651;28;20477;-75
2022/06/03 14:35:27;;;;;;;8.70;8.10;;;;;;;;;;5065713;28;21031;-75
2022/06/03 14:38:01;;;;;;;8.77;8.07;;;;;;;;;;5069743;28;20442;-75
2022/06/03 14:40:32;;;;;;;7.70;7.10;;;;;;;;;;5070259;28;20438;-75
2022/06/03 14:43:00;;;;;;;9.13;8.33;;;;;;;;;;5072445;28;20446;-74
2022/06/03 14:45:29;;;;;;;8.77;8.07;;;;;;;;;;5053475;28;20470;-75
2022/06/03 14:47:57;;;;;;;8.37;7.53;;;;;;;;;;5061820;28;20457;-75
2022/06/03 14:50:25;;;;;;;8.57;7.77;;;;;;;;;;5073251;28;20422;-75
2022/06/03 14:52:55;;;;;;;8.50;7.87;;;;;;;;;;5052338;28;20469;-75
2022/06/03 14:55:26;;;;;;;8.17;7.57;;;;;;;;;;5068903;28;20445;-75
2022/06/03 14:57:56;;;;;;;8.10;7.37;;;;;;;;;;5070760;28;20477;-75
2022/06/03 15:00:30;;;;;;;9.40;7.80;;;;;;;;;;5070782;28;20431;-75
2022/06/03 15:03:00;;;;;;;8.63;7.93;;;;;;;;;;5071742;28;20466;-75
2022/06/03 15:05:34;;;;;;;8.67;7.83;;;;;;;;;;5058876;28;20553;-75
2022/06/03 15:08:05;;;;;;;8.23;7.63;;;;;;;;;;5063966;28;20509;-75
2022/06/03 15:10:34;;;;;;;8.00;7.40;;;;;;;;;;5066229;28;20441;-75
2022/06/03 15:13:01;;;;;;;8.07;7.47;;;;;;;;;;5072611;28;20956;-75
2022/06/03 15:15:29;;;;;;;7.87;7.27;;;;;;;;;;5071973;28;20507;-75
2022/06/03 15:17:55;;;;;;;8.43;7.70;;;;;;;;;;5070703;28;20452;-75
2022/06/03 15:20:22;;;;;;;9.70;7.87;;;;;;;;;;5065941;28;20438;-75
2022/06/03 15:22:50;;;;;;;10.20;8.43;;;;;;;;;;5064381;28;20496;-75
2022/06/03 15:25:18;;;;;;;8.60;7.90;;;;;;;;;;5053464;28;20492;-75
2022/06/03 15:27:47;;;;;;;8.10;7.37;;;;;;;;;;5066806;28;20457;-75
2022/06/03 15:30:19;;;;;;;8.37;7.77;;;;;;;;;;5060845;28;20465;-75
2022/06/03 15:32:46;;;;;;;9.57;7.77;;;;;;;;;;5052329;28;20977;-75
2022/06/03 15:35:14;;;;;;;7.97;7.23;;;;;;;;;;5068498;28;20449;-75
2022/06/03 15:37:41;;;;;;;8.07;7.47;;;;;;;;;;5052353;28;20850;-75
2022/06/03 15:40:08;;;;;;;7.90;7.30;;;;;;;;;;5059494;28;20845;-75
2022/06/03 15:42:35;;;;;;;8.00;7.40;;;;;;;;;;5072438;28;20438;-75
2022/06/03 15:45:06;;;;;;;8.57;7.67;;;;;;;;;;5062825;28;20531;-75
2022/06/03 15:47:33;;;;;;;8.23;7.60;;;;;;;;;;5070862;28;20515;-75
2022/06/03 15:50:05;;;;;;;7.50;6.90;;;;;;;;;;5071044;28;20418;-75
2022/06/03 15:52:39;;;;;;;7.50;6.87;;;;;;;;;;5061775;28;20455;-75
2022/06/03 15:55:06;;;;;;;8.17;7.57;;;;;;;;;;5033898;28;20561;-75
2022/06/03 15:57:43;;;;;;;8.10;7.57;;;;;;;;;;5052029;28;20430;-75
2022/06/03 16:00:28;;;;;;;8.73;8.03;;;;;;;;;;5057243;28;20512;-75
2022/06/03 16:03:13;;;;;;;10.57;8.80;;;;;;;;;;5050330;28;20450;-75